VAM | Vabird-VBD

Virtual Vabird! Aerolínea Virtual de habla hispana, desde 2011




 INFORMACIÓN METAR y TAF
METAR FOR NSFA
ADDS - METARS form results

(1320 UTC 12 April 2021)
Data provider http://aviationweather.gov/metar/data/
 
METAR text: NSFA 121300Z 16002KT 9999 SCT022 23/23 Q1009
Conditions at: NSFA (FALEOLO INT/APIA, WS) observed 1300 UTC 12 April 2021
Temperature: 23.0°C (73°F)
Dewpoint: 23.0°C (73°F) [RH = 100%]
Pressure (altimeter): 29.79 inches Hg (1009.0 mb)
Winds: from the SSE (160 degrees) at 2 MPH (2 knots; 1.0 m/s)
Visibility: 6 or more miles (10+ km)
Ceiling: at least 12,000 feet AGL
Clouds: scattered clouds at 2200 feet AGL
Weather: no significant weather observed at this time

Forecast for: NSFA (FALEOLO INT/APIA, WS)
Text: TAF NSFA 121119Z 1212/1312 14003KT 9999 FEW020 SCT040
Forecast period: 1200 UTC 12 April 2021 to 1200 UTC 13 April 2021
Forecast type: FROM: standard forecast or significant change
Winds: from the SE (140 degrees) at 3 MPH (3 knots; 1.5 m/s)
Visibility: 6 or more miles (10+ km)
Ceiling: at least 12,000 feet AGL
Clouds: few clouds at 2000 feet AGL
scattered clouds at 4000 feet AGL
Weather: no significant weather forecast for this period

 MAPA DE AEROPUERTO

 INFORMACIÓN DE PISTA